sensor_id;sensor_type;location;lat;lon;timestamp;P1;durP1;ratioP1;P2;durP2;ratioP2
11086;SDS011;5597;47.588;9.642;2024-03-08T00:00:05;32.40;;;20.90;;
11086;SDS011;5597;47.588;9.642;2024-03-08T00:02:44;32.70;;;20.30;;
11086;SDS011;5597;47.588;9.642;2024-03-08T00:05:11;34.03;;;21.70;;
11086;SDS011;5597;47.588;9.642;2024-03-08T00:07:37;31.70;;;22.07;;
11086;SDS011;5597;47.588;9.642;2024-03-08T00:10:04;32.13;;;22.20;;
11086;SDS011;5597;47.588;9.642;2024-03-08T00:12:39;33.70;;;22.07;;
11086;SDS011;5597;47.588;9.642;2024-03-08T00:15:08;32.50;;;21.23;;
11086;SDS011;5597;47.588;9.642;2024-03-08T00:17:39;32.93;;;20.93;;
11086;SDS011;5597;47.588;9.642;2024-03-08T00:20:05;29.83;;;20.90;;
11086;SDS011;5597;47.588;9.642;2024-03-08T00:22:42;32.63;;;21.13;;
11086;SDS011;5597;47.588;9.642;2024-03-08T00:25:08;30.80;;;20.30;;
11086;SDS011;5597;47.588;9.642;2024-03-08T00:27:34;30.90;;;20.80;;
11086;SDS011;5597;47.588;9.642;2024-03-08T00:30:00;33.50;;;21.63;;
11086;SDS011;5597;47.588;9.642;2024-03-08T00:32:26;34.27;;;20.57;;
11086;SDS011;5597;47.588;9.642;2024-03-08T00:34:52;29.27;;;19.77;;
11086;SDS011;5597;47.588;9.642;2024-03-08T00:37:19;30.53;;;20.73;;
11086;SDS011;5597;47.588;9.642;2024-03-08T00:39:46;32.03;;;21.23;;
11086;SDS011;5597;47.588;9.642;2024-03-08T00:42:12;30.30;;;20.90;;
11086;SDS011;5597;47.588;9.642;2024-03-08T00:44:38;28.57;;;19.80;;
11086;SDS011;5597;47.588;9.642;2024-03-08T00:47:05;29.17;;;20.03;;
11086;SDS011;5597;47.588;9.642;2024-03-08T00:49:30;30.50;;;19.53;;
11086;SDS011;5597;47.588;9.642;2024-03-08T00:51:56;28.63;;;19.83;;
11086;SDS011;5597;47.588;9.642;2024-03-08T00:54:21;32.00;;;20.37;;
11086;SDS011;5597;47.588;9.642;2024-03-08T00:56:47;32.60;;;20.23;;
11086;SDS011;5597;47.588;9.642;2024-03-08T00:59:12;27.87;;;18.90;;
11086;SDS011;5597;47.588;9.642;2024-03-08T01:01:40;28.67;;;18.67;;
11086;SDS011;5597;47.588;9.642;2024-03-08T01:04:06;28.30;;;18.60;;
11086;SDS011;5597;47.588;9.642;2024-03-08T01:06:32;30.13;;;20.07;;
11086;SDS011;5597;47.588;9.642;2024-03-08T01:08:58;29.37;;;18.67;;
11086;SDS011;5597;47.588;9.642;2024-03-08T01:11:24;26.93;;;18.57;;
11086;SDS011;5597;47.588;9.642;2024-03-08T01:13:50;28.07;;;18.70;;
11086;SDS011;5597;47.588;9.642;2024-03-08T01:16:15;31.07;;;19.33;;
11086;SDS011;5597;47.588;9.642;2024-03-08T01:18:42;29.13;;;19.80;;
11086;SDS011;5597;47.588;9.642;2024-03-08T01:21:08;29.07;;;18.53;;
11086;SDS011;5597;47.588;9.642;2024-03-08T01:23:33;26.03;;;17.60;;
11086;SDS011;5597;47.588;9.642;2024-03-08T01:25:59;27.03;;;18.33;;
11086;SDS011;5597;47.588;9.642;2024-03-08T01:28:27;29.23;;;18.90;;
11086;SDS011;5597;47.588;9.642;2024-03-08T01:30:53;26.70;;;17.77;;
11086;SDS011;5597;47.588;9.642;2024-03-08T01:33:25;28.60;;;18.53;;
11086;SDS011;5597;47.588;9.642;2024-03-08T01:35:51;24.17;;;18.00;;
11086;SDS011;5597;47.588;9.642;2024-03-08T01:38:18;25.40;;;17.87;;
11086;SDS011;5597;47.588;9.642;2024-03-08T01:40:46;26.33;;;18.00;;
11086;SDS011;5597;47.588;9.642;2024-03-08T01:45:57;25.03;;;17.60;;
11086;SDS011;5597;47.588;9.642;2024-03-08T01:48:26;27.03;;;17.73;;
11086;SDS011;5597;47.588;9.642;2024-03-08T01:50:54;29.10;;;18.50;;
11086;SDS011;5597;47.588;9.642;2024-03-08T01:53:21;28.53;;;17.83;;
11086;SDS011;5597;47.588;9.642;2024-03-08T01:55:48;27.03;;;18.27;;
11086;SDS011;5597;47.588;9.642;2024-03-08T01:58:14;25.43;;;16.47;;
11086;SDS011;5597;47.588;9.642;2024-03-08T02:00:40;24.20;;;17.03;;
11086;SDS011;5597;47.588;9.642;2024-03-08T02:03:08;24.40;;;16.33;;
11086;SDS011;5597;47.588;9.642;2024-03-08T02:05:35;23.37;;;16.20;;
11086;SDS011;5597;47.588;9.642;2024-03-08T02:08:05;27.83;;;17.40;;
11086;SDS011;5597;47.588;9.642;2024-03-08T02:10:38;26.27;;;16.40;;
11086;SDS011;5597;47.588;9.642;2024-03-08T02:13:04;26.33;;;17.27;;
11086;SDS011;5597;47.588;9.642;2024-03-08T02:18:14;25.70;;;17.33;;
11086;SDS011;5597;47.588;9.642;2024-03-08T02:20:40;26.03;;;17.23;;
11086;SDS011;5597;47.588;9.642;2024-03-08T02:23:05;26.17;;;17.40;;
11086;SDS011;5597;47.588;9.642;2024-03-08T02:25:31;28.07;;;18.03;;
11086;SDS011;5597;47.588;9.642;2024-03-08T02:27:57;25.47;;;16.77;;
11086;SDS011;5597;47.588;9.642;2024-03-08T02:30:23;24.13;;;16.23;;
11086;SDS011;5597;47.588;9.642;2024-03-08T02:32:48;26.27;;;17.40;;
11086;SDS011;5597;47.588;9.642;2024-03-08T02:35:14;24.13;;;16.60;;
11086;SDS011;5597;47.588;9.642;2024-03-08T02:37:39;23.60;;;16.73;;
11086;SDS011;5597;47.588;9.642;2024-03-08T02:40:05;25.10;;;17.07;;
11086;SDS011;5597;47.588;9.642;2024-03-08T02:42:32;26.83;;;18.27;;
11086;SDS011;5597;47.588;9.642;2024-03-08T02:44:57;27.50;;;17.50;;
11086;SDS011;5597;47.588;9.642;2024-03-08T02:47:23;24.50;;;17.93;;
11086;SDS011;5597;47.588;9.642;2024-03-08T02:49:49;22.73;;;15.67;;
11086;SDS011;5597;47.588;9.642;2024-03-08T02:52:16;25.83;;;16.63;;
11086;SDS011;5597;47.588;9.642;2024-03-08T02:54:41;26.20;;;16.60;;
11086;SDS011;5597;47.588;9.642;2024-03-08T02:57:07;23.87;;;16.53;;
11086;SDS011;5597;47.588;9.642;2024-03-08T02:59:33;24.03;;;16.47;;
11086;SDS011;5597;47.588;9.642;2024-03-08T03:01:59;23.77;;;16.70;;
11086;SDS011;5597;47.588;9.642;2024-03-08T03:04:24;25.83;;;17.30;;
11086;SDS011;5597;47.588;9.642;2024-03-08T03:06:50;26.20;;;16.93;;
11086;SDS011;5597;47.588;9.642;2024-03-08T03:09:15;25.17;;;16.50;;
11086;SDS011;5597;47.588;9.642;2024-03-08T03:11:47;25.47;;;15.63;;
11086;SDS011;5597;47.588;9.642;2024-03-08T03:14:13;23.67;;;15.83;;
11086;SDS011;5597;47.588;9.642;2024-03-08T03:16:38;22.50;;;16.07;;
11086;SDS011;5597;47.588;9.642;2024-03-08T03:19:04;23.83;;;15.67;;
11086;SDS011;5597;47.588;9.642;2024-03-08T03:21:30;22.47;;;15.23;;
11086;SDS011;5597;47.588;9.642;2024-03-08T03:23:56;23.30;;;16.00;;
11086;SDS011;5597;47.588;9.642;2024-03-08T03:26:24;27.60;;;16.97;;
11086;SDS011;5597;47.588;9.642;2024-03-08T03:28:49;24.77;;;16.43;;
11086;SDS011;5597;47.588;9.642;2024-03-08T03:31:15;24.07;;;16.33;;
11086;SDS011;5597;47.588;9.642;2024-03-08T03:33:42;23.13;;;16.03;;
11086;SDS011;5597;47.588;9.642;2024-03-08T03:36:07;20.50;;;14.13;;
11086;SDS011;5597;47.588;9.642;2024-03-08T03:38:34;25.63;;;15.70;;
11086;SDS011;5597;47.588;9.642;2024-03-08T03:41:00;21.43;;;14.53;;
11086;SDS011;5597;47.588;9.642;2024-03-08T03:43:34;23.23;;;15.80;;
11086;SDS011;5597;47.588;9.642;2024-03-08T03:46:00;24.03;;;16.23;;
11086;SDS011;5597;47.588;9.642;2024-03-08T03:48:26;23.50;;;15.90;;
11086;SDS011;5597;47.588;9.642;2024-03-08T03:50:51;25.40;;;16.90;;
11086;SDS011;5597;47.588;9.642;2024-03-08T03:53:17;25.30;;;16.53;;
11086;SDS011;5597;47.588;9.642;2024-03-08T03:55:42;27.07;;;16.67;;
11086;SDS011;5597;47.588;9.642;2024-03-08T03:58:08;26.80;;;17.30;;
11086;SDS011;5597;47.588;9.642;2024-03-08T04:00:36;23.53;;;15.70;;
11086;SDS011;5597;47.588;9.642;2024-03-08T04:03:02;23.50;;;16.20;;
11086;SDS011;5597;47.588;9.642;2024-03-08T04:05:28;25.10;;;16.40;;
11086;SDS011;5597;47.588;9.642;2024-03-08T04:07:53;24.80;;;16.00;;
11086;SDS011;5597;47.588;9.642;2024-03-08T04:10:19;24.43;;;16.37;;
11086;SDS011;5597;47.588;9.642;2024-03-08T04:12:45;24.00;;;15.50;;
11086;SDS011;5597;47.588;9.642;2024-03-08T04:15:10;22.23;;;15.77;;
11086;SDS011;5597;47.588;9.642;2024-03-08T04:17:36;26.50;;;16.43;;
11086;SDS011;5597;47.588;9.642;2024-03-08T04:20:04;25.10;;;17.13;;
11086;SDS011;5597;47.588;9.642;2024-03-08T04:22:35;24.53;;;16.23;;
11086;SDS011;5597;47.588;9.642;2024-03-08T04:25:08;22.70;;;15.17;;
11086;SDS011;5597;47.588;9.642;2024-03-08T04:27:35;23.17;;;15.13;;
11086;SDS011;5597;47.588;9.642;2024-03-08T04:30:04;23.33;;;15.17;;
11086;SDS011;5597;47.588;9.642;2024-03-08T04:32:32;22.27;;;15.07;;
11086;SDS011;5597;47.588;9.642;2024-03-08T04:34:58;23.80;;;15.87;;
11086;SDS011;5597;47.588;9.642;2024-03-08T04:37:26;24.20;;;15.33;;
11086;SDS011;5597;47.588;9.642;2024-03-08T04:39:51;26.27;;;17.63;;
11086;SDS011;5597;47.588;9.642;2024-03-08T04:42:17;23.67;;;15.80;;
11086;SDS011;5597;47.588;9.642;2024-03-08T04:44:43;24.57;;;16.53;;
11086;SDS011;5597;47.588;9.642;2024-03-08T04:47:09;24.53;;;15.40;;
11086;SDS011;5597;47.588;9.642;2024-03-08T04:49:36;26.90;;;16.50;;
11086;SDS011;5597;47.588;9.642;2024-03-08T04:52:02;23.03;;;15.77;;
11086;SDS011;5597;47.588;9.642;2024-03-08T04:54:28;26.67;;;16.83;;
11086;SDS011;5597;47.588;9.642;2024-03-08T04:56:54;25.97;;;17.67;;
11086;SDS011;5597;47.588;9.642;2024-03-08T04:59:20;25.03;;;16.30;;
11086;SDS011;5597;47.588;9.642;2024-03-08T05:01:45;23.60;;;15.47;;
11086;SDS011;5597;47.588;9.642;2024-03-08T05:04:12;22.67;;;14.87;;
11086;SDS011;5597;47.588;9.642;2024-03-08T05:06:38;24.20;;;15.27;;
11086;SDS011;5597;47.588;9.642;2024-03-08T05:09:03;23.57;;;15.43;;
11086;SDS011;5597;47.588;9.642;2024-03-08T05:11:42;23.07;;;14.97;;
11086;SDS011;5597;47.588;9.642;2024-03-08T05:14:09;21.97;;;14.90;;
11086;SDS011;5597;47.588;9.642;2024-03-08T05:16:35;24.90;;;16.63;;
11086;SDS011;5597;47.588;9.642;2024-03-08T05:19:01;23.00;;;16.20;;
11086;SDS011;5597;47.588;9.642;2024-03-08T05:21:27;26.63;;;17.10;;
11086;SDS011;5597;47.588;9.642;2024-03-08T05:23:53;27.57;;;17.47;;
11086;SDS011;5597;47.588;9.642;2024-03-08T05:26:19;25.37;;;16.40;;
11086;SDS011;5597;47.588;9.642;2024-03-08T05:28:45;27.33;;;17.13;;
11086;SDS011;5597;47.588;9.642;2024-03-08T05:31:17;26.00;;;15.93;;
11086;SDS011;5597;47.588;9.642;2024-03-08T05:33:47;25.23;;;16.57;;
11086;SDS011;5597;47.588;9.642;2024-03-08T05:36:13;24.77;;;16.57;;
11086;SDS011;5597;47.588;9.642;2024-03-08T05:38:40;23.90;;;16.17;;
11086;SDS011;5597;47.588;9.642;2024-03-08T05:41:07;26.73;;;16.90;;
11086;SDS011;5597;47.588;9.642;2024-03-08T05:43:33;24.57;;;16.83;;
11086;SDS011;5597;47.588;9.642;2024-03-08T05:45:58;28.27;;;18.07;;
11086;SDS011;5597;47.588;9.642;2024-03-08T05:48:24;27.10;;;18.60;;
11086;SDS011;5597;47.588;9.642;2024-03-08T05:50:50;25.57;;;17.70;;
11086;SDS011;5597;47.588;9.642;2024-03-08T05:53:15;26.80;;;17.03;;
11086;SDS011;5597;47.588;9.642;2024-03-08T05:55:41;27.27;;;18.20;;
11086;SDS011;5597;47.588;9.642;2024-03-08T05:58:07;27.07;;;18.03;;
11086;SDS011;5597;47.588;9.642;2024-03-08T06:00:33;30.07;;;18.70;;
11086;SDS011;5597;47.588;9.642;2024-03-08T06:03:01;28.30;;;18.40;;
11086;SDS011;5597;47.588;9.642;2024-03-08T06:05:27;27.97;;;18.80;;
11086;SDS011;5597;47.588;9.642;2024-03-08T06:07:53;29.53;;;19.07;;
11086;SDS011;5597;47.588;9.642;2024-03-08T06:10:18;30.53;;;18.90;;
11086;SDS011;5597;47.588;9.642;2024-03-08T06:12:44;30.00;;;19.73;;
11086;SDS011;5597;47.588;9.642;2024-03-08T06:15:10;28.20;;;18.90;;
11086;SDS011;5597;47.588;9.642;2024-03-08T06:17:39;33.43;;;21.33;;
11086;SDS011;5597;47.588;9.642;2024-03-08T06:20:06;29.57;;;20.37;;
11086;SDS011;5597;47.588;9.642;2024-03-08T06:22:38;30.47;;;19.20;;
11086;SDS011;5597;47.588;9.642;2024-03-08T06:25:06;27.17;;;18.33;;
11086;SDS011;5597;47.588;9.642;2024-03-08T06:27:32;29.47;;;18.13;;
11086;SDS011;5597;47.588;9.642;2024-03-08T06:29:59;27.40;;;17.63;;
11086;SDS011;5597;47.588;9.642;2024-03-08T06:32:25;28.93;;;18.03;;
11086;SDS011;5597;47.588;9.642;2024-03-08T06:34:50;29.80;;;18.33;;
11086;SDS011;5597;47.588;9.642;2024-03-08T06:37:16;32.07;;;19.73;;
11086;SDS011;5597;47.588;9.642;2024-03-08T06:39:46;31.53;;;19.43;;
11086;SDS011;5597;47.588;9.642;2024-03-08T06:42:16;33.30;;;19.80;;
11086;SDS011;5597;47.588;9.642;2024-03-08T06:44:42;29.40;;;18.67;;
11086;SDS011;5597;47.588;9.642;2024-03-08T06:47:14;28.73;;;18.67;;
11086;SDS011;5597;47.588;9.642;2024-03-08T06:49:41;29.07;;;19.17;;
11086;SDS011;5597;47.588;9.642;2024-03-08T06:52:08;30.17;;;18.50;;
11086;SDS011;5597;47.588;9.642;2024-03-08T06:54:34;28.20;;;18.30;;
11086;SDS011;5597;47.588;9.642;2024-03-08T06:57:03;26.33;;;17.60;;
11086;SDS011;5597;47.588;9.642;2024-03-08T06:59:30;28.27;;;18.57;;
11086;SDS011;5597;47.588;9.642;2024-03-08T07:02:00;26.27;;;17.40;;
11086;SDS011;5597;47.588;9.642;2024-03-08T07:04:26;25.83;;;17.13;;
11086;SDS011;5597;47.588;9.642;2024-03-08T07:06:54;27.63;;;17.77;;
11086;SDS011;5597;47.588;9.642;2024-03-08T07:09:26;27.97;;;17.33;;
11086;SDS011;5597;47.588;9.642;2024-03-08T07:11:51;23.80;;;15.97;;
11086;SDS011;5597;47.588;9.642;2024-03-08T07:14:22;25.93;;;17.70;;
11086;SDS011;5597;47.588;9.642;2024-03-08T07:16:48;25.80;;;16.73;;
11086;SDS011;5597;47.588;9.642;2024-03-08T07:19:14;23.73;;;16.10;;
11086;SDS011;5597;47.588;9.642;2024-03-08T07:21:40;26.07;;;17.33;;
11086;SDS011;5597;47.588;9.642;2024-03-08T07:24:07;24.00;;;15.93;;
11086;SDS011;5597;47.588;9.642;2024-03-08T07:26:41;25.47;;;15.90;;
11086;SDS011;5597;47.588;9.642;2024-03-08T07:29:07;22.40;;;15.07;;
11086;SDS011;5597;47.588;9.642;2024-03-08T07:31:33;25.83;;;16.13;;
11086;SDS011;5597;47.588;9.642;2024-03-08T07:34:17;23.50;;;15.63;;
11086;SDS011;5597;47.588;9.642;2024-03-08T07:36:43;23.13;;;15.10;;
11086;SDS011;5597;47.588;9.642;2024-03-08T07:39:08;23.47;;;15.30;;
11086;SDS011;5597;47.588;9.642;2024-03-08T07:41:36;23.70;;;15.63;;
11086;SDS011;5597;47.588;9.642;2024-03-08T07:44:05;25.67;;;15.63;;
11086;SDS011;5597;47.588;9.642;2024-03-08T07:46:31;23.97;;;16.17;;
11086;SDS011;5597;47.588;9.642;2024-03-08T07:48:59;24.03;;;15.73;;
11086;SDS011;5597;47.588;9.642;2024-03-08T07:51:25;21.80;;;14.97;;
11086;SDS011;5597;47.588;9.642;2024-03-08T07:53:50;20.67;;;14.33;;
11086;SDS011;5597;47.588;9.642;2024-03-08T07:56:16;20.20;;;14.63;;
11086;SDS011;5597;47.588;9.642;2024-03-08T07:58:43;23.33;;;16.20;;
11086;SDS011;5597;47.588;9.642;2024-03-08T08:01:18;24.00;;;15.30;;
11086;SDS011;5597;47.588;9.642;2024-03-08T08:03:45;25.57;;;16.00;;
11086;SDS011;5597;47.588;9.642;2024-03-08T08:06:11;23.77;;;15.00;;
11086;SDS011;5597;47.588;9.642;2024-03-08T08:08:43;20.70;;;14.23;;
11086;SDS011;5597;47.588;9.642;2024-03-08T08:11:09;21.33;;;14.30;;
11086;SDS011;5597;47.588;9.642;2024-03-08T08:13:40;21.63;;;13.90;;
11086;SDS011;5597;47.588;9.642;2024-03-08T08:16:08;20.87;;;13.97;;
11086;SDS011;5597;47.588;9.642;2024-03-08T08:18:34;20.17;;;13.83;;
11086;SDS011;5597;47.588;9.642;2024-03-08T08:21:00;22.50;;;14.53;;
11086;SDS011;5597;47.588;9.642;2024-03-08T08:23:26;21.20;;;14.83;;
11086;SDS011;5597;47.588;9.642;2024-03-08T08:25:52;20.43;;;14.23;;
11086;SDS011;5597;47.588;9.642;2024-03-08T08:28:18;19.50;;;13.90;;
11086;SDS011;5597;47.588;9.642;2024-03-08T08:30:44;19.63;;;13.57;;
11086;SDS011;5597;47.588;9.642;2024-03-08T08:33:10;18.87;;;13.23;;
11086;SDS011;5597;47.588;9.642;2024-03-08T08:35:38;18.80;;;13.00;;
11086;SDS011;5597;47.588;9.642;2024-03-08T08:38:07;18.17;;;13.37;;
11086;SDS011;5597;47.588;9.642;2024-03-08T08:40:33;18.57;;;13.57;;
11086;SDS011;5597;47.588;9.642;2024-03-08T08:43:00;21.57;;;13.33;;
11086;SDS011;5597;47.588;9.642;2024-03-08T08:45:29;18.80;;;13.20;;
11086;SDS011;5597;47.588;9.642;2024-03-08T08:47:58;20.73;;;14.03;;
11086;SDS011;5597;47.588;9.642;2024-03-08T08:50:27;17.97;;;13.07;;
11086;SDS011;5597;47.588;9.642;2024-03-08T08:52:53;18.37;;;13.17;;
11086;SDS011;5597;47.588;9.642;2024-03-08T08:55:19;22.13;;;13.73;;
11086;SDS011;5597;47.588;9.642;2024-03-08T08:57:50;17.83;;;13.13;;
11086;SDS011;5597;47.588;9.642;2024-03-08T09:00:17;18.80;;;13.23;;
11086;SDS011;5597;47.588;9.642;2024-03-08T09:02:45;16.43;;;12.33;;
11086;SDS011;5597;47.588;9.642;2024-03-08T09:05:10;16.90;;;12.90;;
11086;SDS011;5597;47.588;9.642;2024-03-08T09:07:36;17.37;;;12.17;;
11086;SDS011;5597;47.588;9.642;2024-03-08T09:10:02;15.37;;;11.83;;
11086;SDS011;5597;47.588;9.642;2024-03-08T09:12:29;17.23;;;12.33;;
11086;SDS011;5597;47.588;9.642;2024-03-08T09:14:54;16.37;;;12.10;;
11086;SDS011;5597;47.588;9.642;2024-03-08T09:17:20;15.93;;;11.60;;
11086;SDS011;5597;47.588;9.642;2024-03-08T09:19:46;16.43;;;12.40;;
11086;SDS011;5597;47.588;9.642;2024-03-08T09:22:12;15.73;;;12.23;;
11086;SDS011;5597;47.588;9.642;2024-03-08T09:24:38;16.00;;;11.97;;
11086;SDS011;5597;47.588;9.642;2024-03-08T09:27:04;14.33;;;10.83;;
11086;SDS011;5597;47.588;9.642;2024-03-08T09:29:30;14.27;;;11.27;;
11086;SDS011;5597;47.588;9.642;2024-03-08T09:31:55;14.33;;;11.00;;
11086;SDS011;5597;47.588;9.642;2024-03-08T09:34:21;17.37;;;11.50;;
11086;SDS011;5597;47.588;9.642;2024-03-08T09:36:47;13.57;;;10.93;;
11086;SDS011;5597;47.588;9.642;2024-03-08T09:39:12;15.80;;;12.10;;
11086;SDS011;5597;47.588;9.642;2024-03-08T09:41:44;13.87;;;10.77;;
11086;SDS011;5597;47.588;9.642;2024-03-08T09:44:13;12.63;;;10.00;;
11086;SDS011;5597;47.588;9.642;2024-03-08T09:46:39;13.30;;;10.50;;
11086;SDS011;5597;47.588;9.642;2024-03-08T09:49:05;14.23;;;10.50;;
11086;SDS011;5597;47.588;9.642;2024-03-08T09:51:33;12.20;;;9.90;;
11086;SDS011;5597;47.588;9.642;2024-03-08T09:54:03;13.90;;;11.20;;
11086;SDS011;5597;47.588;9.642;2024-03-08T09:56:30;12.57;;;9.87;;
11086;SDS011;5597;47.588;9.642;2024-03-08T09:58:58;12.10;;;10.03;;
11086;SDS011;5597;47.588;9.642;2024-03-08T10:01:36;12.73;;;10.03;;
11086;SDS011;5597;47.588;9.642;2024-03-08T10:04:03;13.83;;;10.80;;
11086;SDS011;5597;47.588;9.642;2024-03-08T10:06:29;14.00;;;10.37;;
11086;SDS011;5597;47.588;9.642;2024-03-08T10:08:56;11.60;;;9.37;;
11086;SDS011;5597;47.588;9.642;2024-03-08T10:11:22;14.33;;;9.83;;
11086;SDS011;5597;47.588;9.642;2024-03-08T10:13:49;12.97;;;10.17;;
11086;SDS011;5597;47.588;9.642;2024-03-08T10:16:15;12.80;;;10.23;;
11086;SDS011;5597;47.588;9.642;2024-03-08T10:18:42;12.83;;;9.73;;
11086;SDS011;5597;47.588;9.642;2024-03-08T10:21:09;13.30;;;9.77;;
11086;SDS011;5597;47.588;9.642;2024-03-08T10:23:36;13.17;;;10.40;;
11086;SDS011;5597;47.588;9.642;2024-03-08T10:28:50;11.97;;;9.43;;
11086;SDS011;5597;47.588;9.642;2024-03-08T10:31:17;11.50;;;9.10;;
11086;SDS011;5597;47.588;9.642;2024-03-08T10:33:44;10.63;;;8.97;;
11086;SDS011;5597;47.588;9.642;2024-03-08T10:36:11;11.10;;;9.03;;
11086;SDS011;5597;47.588;9.642;2024-03-08T10:38:39;13.63;;;10.30;;
11086;SDS011;5597;47.588;9.642;2024-03-08T10:41:06;11.53;;;10.10;;
11086;SDS011;5597;47.588;9.642;2024-03-08T10:43:52;10.70;;;9.23;;
11086;SDS011;5597;47.588;9.642;2024-03-08T10:46:46;12.70;;;9.53;;
11086;SDS011;5597;47.588;9.642;2024-03-08T10:49:18;12.10;;;9.40;;
11086;SDS011;5597;47.588;9.642;2024-03-08T10:51:50;12.27;;;10.37;;
11086;SDS011;5597;47.588;9.642;2024-03-08T10:54:17;11.27;;;9.63;;
11086;SDS011;5597;47.588;9.642;2024-03-08T10:56:44;11.03;;;9.83;;
11086;SDS011;5597;47.588;9.642;2024-03-08T10:59:11;11.63;;;10.13;;
11086;SDS011;5597;47.588;9.642;2024-03-08T11:01:38;11.83;;;10.33;;
11086;SDS011;5597;47.588;9.642;2024-03-08T11:04:05;10.60;;;9.50;;
11086;SDS011;5597;47.588;9.642;2024-03-08T11:09:03;11.07;;;9.70;;
11086;SDS011;5597;47.588;9.642;2024-03-08T11:11:38;10.60;;;9.47;;
11086;SDS011;5597;47.588;9.642;2024-03-08T11:14:07;12.90;;;11.30;;
11086;SDS011;5597;47.588;9.642;2024-03-08T11:17:08;12.10;;;10.40;;
11086;SDS011;5597;47.588;9.642;2024-03-08T11:19:34;11.43;;;9.80;;
11086;SDS011;5597;47.588;9.642;2024-03-08T11:22:00;12.27;;;10.40;;
11086;SDS011;5597;47.588;9.642;2024-03-08T11:24:28;11.60;;;9.73;;
11086;SDS011;5597;47.588;9.642;2024-03-08T11:27:03;11.17;;;10.00;;
11086;SDS011;5597;47.588;9.642;2024-03-08T11:34:34;11.33;;;10.13;;
11086;SDS011;5597;47.588;9.642;2024-03-08T11:37:00;10.90;;;9.33;;
11086;SDS011;5597;47.588;9.642;2024-03-08T11:39:28;11.23;;;9.90;;
11086;SDS011;5597;47.588;9.642;2024-03-08T11:41:55;12.07;;;10.03;;
11086;SDS011;5597;47.588;9.642;2024-03-08T11:44:21;10.40;;;9.13;;
11086;SDS011;5597;47.588;9.642;2024-03-08T11:46:52;11.10;;;9.77;;
11086;SDS011;5597;47.588;9.642;2024-03-08T11:49:18;11.10;;;9.93;;
11086;SDS011;5597;47.588;9.642;2024-03-08T11:51:44;11.07;;;9.63;;
11086;SDS011;5597;47.588;9.642;2024-03-08T11:54:11;11.30;;;9.83;;
11086;SDS011;5597;47.588;9.642;2024-03-08T11:56:38;10.90;;;9.70;;
11086;SDS011;5597;47.588;9.642;2024-03-08T11:59:03;12.80;;;10.30;;
11086;SDS011;5597;47.588;9.642;2024-03-08T12:01:30;11.93;;;10.13;;
11086;SDS011;5597;47.588;9.642;2024-03-08T12:03:57;11.03;;;9.87;;
11086;SDS011;5597;47.588;9.642;2024-03-08T12:06:26;11.20;;;10.00;;
11086;SDS011;5597;47.588;9.642;2024-03-08T12:09:01;11.27;;;9.93;;
11086;SDS011;5597;47.588;9.642;2024-03-08T12:11:27;11.30;;;10.00;;
11086;SDS011;5597;47.588;9.642;2024-03-08T12:13:53;11.40;;;10.30;;
11086;SDS011;5597;47.588;9.642;2024-03-08T12:16:19;12.17;;;10.87;;
11086;SDS011;5597;47.588;9.642;2024-03-08T12:18:46;12.10;;;9.83;;
11086;SDS011;5597;47.588;9.642;2024-03-08T12:21:13;12.23;;;10.73;;
11086;SDS011;5597;47.588;9.642;2024-03-08T12:23:42;11.77;;;10.07;;
11086;SDS011;5597;47.588;9.642;2024-03-08T12:26:13;12.93;;;11.10;;
11086;SDS011;5597;47.588;9.642;2024-03-08T12:28:43;12.03;;;10.57;;
11086;SDS011;5597;47.588;9.642;2024-03-08T12:31:13;12.30;;;11.00;;
11086;SDS011;5597;47.588;9.642;2024-03-08T12:36:14;12.57;;;11.23;;
11086;SDS011;5597;47.588;9.642;2024-03-08T12:38:47;13.93;;;11.53;;
11086;SDS011;5597;47.588;9.642;2024-03-08T12:41:14;13.43;;;11.90;;
11086;SDS011;5597;47.588;9.642;2024-03-08T12:43:40;13.00;;;11.50;;
11086;SDS011;5597;47.588;9.642;2024-03-08T12:46:06;12.87;;;11.27;;
11086;SDS011;5597;47.588;9.642;2024-03-08T12:48:34;12.83;;;11.23;;
11086;SDS011;5597;47.588;9.642;2024-03-08T12:51:00;12.53;;;11.23;;
11086;SDS011;5597;47.588;9.642;2024-03-08T12:53:26;13.53;;;11.87;;
11086;SDS011;5597;47.588;9.642;2024-03-08T12:55:53;13.63;;;11.73;;
11086;SDS011;5597;47.588;9.642;2024-03-08T12:58:21;13.17;;;11.47;;
11086;SDS011;5597;47.588;9.642;2024-03-08T13:00:47;12.23;;;10.47;;
11086;SDS011;5597;47.588;9.642;2024-03-08T13:03:14;15.03;;;12.30;;
11086;SDS011;5597;47.588;9.642;2024-03-08T13:05:39;14.87;;;12.40;;
11086;SDS011;5597;47.588;9.642;2024-03-08T13:08:07;15.07;;;12.40;;
11086;SDS011;5597;47.588;9.642;2024-03-08T13:10:38;14.30;;;11.53;;
11086;SDS011;5597;47.588;9.642;2024-03-08T13:13:05;13.20;;;11.17;;
11086;SDS011;5597;47.588;9.642;2024-03-08T13:15:30;14.37;;;12.33;;
11086;SDS011;5597;47.588;9.642;2024-03-08T13:17:56;13.03;;;11.60;;
11086;SDS011;5597;47.588;9.642;2024-03-08T13:20:25;13.20;;;11.57;;
11086;SDS011;5597;47.588;9.642;2024-03-08T13:22:53;14.47;;;12.40;;
11086;SDS011;5597;47.588;9.642;2024-03-08T13:25:19;14.57;;;12.67;;
11086;SDS011;5597;47.588;9.642;2024-03-08T13:27:45;13.50;;;11.90;;
11086;SDS011;5597;47.588;9.642;2024-03-08T13:30:11;16.37;;;13.10;;
11086;SDS011;5597;47.588;9.642;2024-03-08T13:32:41;13.93;;;12.23;;
11086;SDS011;5597;47.588;9.642;2024-03-08T13:35:10;13.67;;;12.27;;
11086;SDS011;5597;47.588;9.642;2024-03-08T13:37:40;13.03;;;11.27;;
11086;SDS011;5597;47.588;9.642;2024-03-08T13:40:07;13.07;;;11.63;;
11086;SDS011;5597;47.588;9.642;2024-03-08T13:42:38;13.60;;;11.83;;
11086;SDS011;5597;47.588;9.642;2024-03-08T13:45:07;12.67;;;11.33;;
11086;SDS011;5597;47.588;9.642;2024-03-08T13:47:37;12.93;;;11.50;;
11086;SDS011;5597;47.588;9.642;2024-03-08T13:50:05;11.80;;;10.50;;
11086;SDS011;5597;47.588;9.642;2024-03-08T13:52:32;12.77;;;11.37;;
11086;SDS011;5597;47.588;9.642;2024-03-08T13:54:59;12.73;;;11.40;;
11086;SDS011;5597;47.588;9.642;2024-03-08T13:57:25;12.13;;;10.87;;
11086;SDS011;5597;47.588;9.642;2024-03-08T13:59:52;11.90;;;10.63;;
11086;SDS011;5597;47.588;9.642;2024-03-08T14:02:18;12.43;;;11.07;;
11086;SDS011;5597;47.588;9.642;2024-03-08T14:04:43;12.23;;;10.40;;
11086;SDS011;5597;47.588;9.642;2024-03-08T14:07:09;13.23;;;11.73;;
11086;SDS011;5597;47.588;9.642;2024-03-08T14:09:36;13.43;;;11.67;;
11086;SDS011;5597;47.588;9.642;2024-03-08T14:12:08;12.53;;;11.03;;
11086;SDS011;5597;47.588;9.642;2024-03-08T14:14:34;14.07;;;12.10;;
11086;SDS011;5597;47.588;9.642;2024-03-08T14:17:00;15.13;;;11.73;;
11086;SDS011;5597;47.588;9.642;2024-03-08T14:19:27;12.63;;;11.30;;
11086;SDS011;5597;47.588;9.642;2024-03-08T14:21:56;13.07;;;11.27;;
11086;SDS011;5597;47.588;9.642;2024-03-08T14:24:21;12.97;;;10.80;;
11086;SDS011;5597;47.588;9.642;2024-03-08T14:26:48;11.93;;;10.53;;
11086;SDS011;5597;47.588;9.642;2024-03-08T14:29:14;15.83;;;12.03;;
11086;SDS011;5597;47.588;9.642;2024-03-08T14:31:40;11.97;;;10.73;;
11086;SDS011;5597;47.588;9.642;2024-03-08T14:34:08;11.73;;;10.50;;
11086;SDS011;5597;47.588;9.642;2024-03-08T14:36:34;15.03;;;12.63;;
11086;SDS011;5597;47.588;9.642;2024-03-08T14:38:59;12.33;;;11.03;;
11086;SDS011;5597;47.588;9.642;2024-03-08T14:41:25;12.00;;;10.80;;
11086;SDS011;5597;47.588;9.642;2024-03-08T14:43:52;14.17;;;12.43;;
11086;SDS011;5597;47.588;9.642;2024-03-08T14:46:18;13.70;;;11.90;;
11086;SDS011;5597;47.588;9.642;2024-03-08T14:48:46;11.87;;;10.63;;
11086;SDS011;5597;47.588;9.642;2024-03-08T14:51:12;12.80;;;11.30;;
11086;SDS011;5597;47.588;9.642;2024-03-08T14:53:42;11.83;;;10.60;;